createdAt,value
2022-12-18T00:00:13.869Z,0.00
2022-12-18T00:03:37.792Z,-0.04
2022-12-18T00:06:40.968Z,-0.07
2022-12-18T00:09:44.346Z,-0.05
2022-12-18T00:12:46.951Z,0.09
2022-12-18T00:15:49.703Z,0.03
2022-12-18T00:18:54.984Z,-0.08
2022-12-18T00:21:59.214Z,-0.14
2022-12-18T00:25:01.943Z,-0.20
2022-12-18T00:28:05.282Z,-0.18
2022-12-18T00:31:11.070Z,-0.12
2022-12-18T00:34:14.539Z,-0.21
2022-12-18T00:37:20.282Z,-0.25
2022-12-18T00:40:26.973Z,-0.23
2022-12-18T00:43:29.846Z,-0.24
2022-12-18T00:46:33.177Z,-0.15
2022-12-18T00:49:35.936Z,-0.13
2022-12-18T00:52:38.786Z,-0.13
2022-12-18T00:55:42.324Z,-0.04
2022-12-18T00:58:45.289Z,0.05
2022-12-18T01:01:48.875Z,0.06
2022-12-18T01:04:51.781Z,-0.02
2022-12-18T01:07:56.686Z,0.01
2022-12-18T01:10:59.422Z,-0.06
2022-12-18T01:14:02.205Z,-0.11
2022-12-18T01:17:05.609Z,-0.15
2022-12-18T01:20:10.350Z,-0.20
2022-12-18T01:23:13.071Z,-0.10
2022-12-18T01:26:17.053Z,-0.17
2022-12-18T01:29:20.003Z,-0.20
2022-12-18T01:32:23.032Z,-0.21
2022-12-18T01:35:26.258Z,-0.26
2022-12-18T01:38:29.626Z,-0.11
2022-12-18T01:41:51.922Z,-0.20
2022-12-18T01:45:02.690Z,-0.07
2022-12-18T01:48:09.907Z,-0.25
2022-12-18T01:51:13.762Z,-0.33
2022-12-18T01:54:17.067Z,-0.39
2022-12-18T01:57:20.493Z,-0.39
2022-12-18T02:00:24.724Z,-0.38
2022-12-18T02:03:27.583Z,-0.38
2022-12-18T02:06:42.229Z,-0.42
2022-12-18T02:09:56.434Z,-0.40
2022-12-18T02:13:17.252Z,-0.44
2022-12-18T02:16:37.738Z,-0.45
2022-12-18T02:19:59.042Z,-0.39
2022-12-18T02:23:26.650Z,-0.39
2022-12-18T02:26:38.847Z,-0.48
2022-12-18T02:29:58.925Z,-0.53
2022-12-18T02:33:07.391Z,-0.45
2022-12-18T02:36:11.988Z,-0.41
2022-12-18T02:39:16.971Z,-0.26
2022-12-18T02:42:20.927Z,-0.36
2022-12-18T02:45:24.342Z,-0.42
2022-12-18T02:48:34.994Z,-0.48
2022-12-18T02:51:51.599Z,-0.49
2022-12-18T02:55:11.590Z,-0.50
2022-12-18T02:58:19.786Z,-0.44
2022-12-18T03:01:41.079Z,-0.47
2022-12-18T03:04:48.626Z,-0.54
2022-12-18T03:08:09.410Z,-0.59
2022-12-18T03:11:14.954Z,-0.48
2022-12-18T03:14:21.614Z,-0.54
2022-12-18T03:17:28.797Z,-0.64
2022-12-18T03:20:35.227Z,-0.66
2022-12-18T03:23:44.047Z,-0.61
2022-12-18T03:26:50.401Z,-0.54
2022-12-18T03:30:08.428Z,-0.59
2022-12-18T03:33:54.021Z,-0.48
2022-12-18T03:36:58.769Z,-0.47
2022-12-18T03:40:01.294Z,-0.54
2022-12-18T03:43:19.417Z,-0.59
2022-12-18T03:46:31.818Z,-0.62
2022-12-18T03:49:34.785Z,-0.67
2022-12-18T03:52:47.049Z,-0.71
2022-12-18T03:55:53.161Z,-0.66
2022-12-18T03:58:57.710Z,-0.65
2022-12-18T04:02:04.458Z,-0.70
2022-12-18T04:05:10.047Z,-0.72
2022-12-18T04:08:14.247Z,-0.75
2022-12-18T04:11:18.046Z,-0.82
2022-12-18T04:14:21.175Z,-0.85
2022-12-18T04:17:24.830Z,-0.85
2022-12-18T04:20:27.961Z,-0.78
2022-12-18T04:23:30.802Z,-0.70
2022-12-18T04:26:33.806Z,-0.66
2022-12-18T04:29:37.022Z,-0.76
2022-12-18T04:32:39.848Z,-0.59
2022-12-18T04:35:44.338Z,-0.60
2022-12-18T04:38:47.144Z,-0.67
2022-12-18T04:41:50.836Z,-0.69
2022-12-18T04:44:53.977Z,-0.64
2022-12-18T04:48:01.799Z,-0.67
2022-12-18T04:51:06.100Z,-0.69
2022-12-18T04:54:08.801Z,-0.73
2022-12-18T04:57:11.559Z,-0.75
2022-12-18T05:00:14.717Z,-0.62
2022-12-18T05:03:17.512Z,-0.56
2022-12-18T05:06:20.339Z,-0.68
2022-12-18T05:09:24.320Z,-0.80
2022-12-18T05:12:27.134Z,-0.84
2022-12-18T05:15:33.590Z,-0.77
2022-12-18T05:18:36.547Z,-0.80
2022-12-18T05:21:39.262Z,-0.87
2022-12-18T05:24:42.127Z,-0.77
2022-12-18T05:27:45.897Z,-0.89
2022-12-18T05:30:50.709Z,-0.96
2022-12-18T05:33:53.437Z,-0.96
2022-12-18T05:36:56.151Z,-0.82
2022-12-18T05:39:58.958Z,-0.88
2022-12-18T05:43:01.703Z,-0.80
2022-12-18T05:46:09.370Z,-0.83
2022-12-18T05:49:12.148Z,-0.84
2022-12-18T05:52:14.970Z,-0.96
2022-12-18T05:55:17.874Z,-0.87
2022-12-18T05:58:20.594Z,-0.82
2022-12-18T06:01:27.425Z,-0.81
2022-12-18T06:04:30.604Z,-0.89
2022-12-18T06:07:33.271Z,-1.06
2022-12-18T06:10:36.318Z,-1.08
2022-12-18T06:13:40.016Z,-1.08
2022-12-18T06:16:43.283Z,-0.98
2022-12-18T06:19:45.735Z,-0.99
2022-12-18T06:22:48.786Z,-0.93
2022-12-18T06:25:52.554Z,-0.81
2022-12-18T06:28:55.709Z,-0.96
2022-12-18T06:31:58.146Z,-0.92
2022-12-18T06:35:01.591Z,-0.87
2022-12-18T06:38:04.164Z,-0.94
2022-12-18T06:41:11.626Z,-0.97
2022-12-18T06:44:14.085Z,-0.89
2022-12-18T06:47:17.116Z,-0.81
2022-12-18T06:50:19.534Z,-0.84
2022-12-18T06:53:22.718Z,-0.88
2022-12-18T06:56:25.158Z,-0.94
2022-12-18T06:59:28.164Z,-0.96
2022-12-18T07:02:31.448Z,-0.87
2022-12-18T07:05:35.021Z,-0.82
2022-12-18T07:08:37.515Z,-0.84
2022-12-18T07:11:40.517Z,-0.75
2022-12-18T07:14:43.005Z,-0.81
2022-12-18T07:17:46.003Z,-0.76
2022-12-18T07:20:48.434Z,-0.70
2022-12-18T07:23:52.243Z,-0.60
2022-12-18T07:26:54.745Z,-0.60
2022-12-18T07:29:58.243Z,-0.46
2022-12-18T07:33:00.745Z,-0.52
2022-12-18T07:36:06.231Z,-0.60
2022-12-18T07:39:08.967Z,-0.56
2022-12-18T07:42:30.159Z,-0.48
2022-12-18T07:45:32.680Z,-0.32
2022-12-18T07:48:35.827Z,-0.16
2022-12-18T07:51:38.304Z,-0.17
2022-12-18T07:54:41.481Z,-0.16
2022-12-18T07:57:54.158Z,-0.04
2022-12-18T08:01:06.456Z,0.06
2022-12-18T08:04:09.310Z,0.12
2022-12-18T08:07:12.051Z,0.36
2022-12-18T08:10:15.157Z,0.59
2022-12-18T08:13:17.902Z,0.86
2022-12-18T08:16:22.072Z,0.90
2022-12-18T08:19:24.982Z,1.25
2022-12-18T08:22:27.738Z,1.61
2022-12-18T08:25:30.661Z,2.00
2022-12-18T08:28:34.162Z,2.36
2022-12-18T08:31:36.875Z,2.84
2022-12-18T08:34:39.563Z,3.26
2022-12-18T08:37:42.339Z,3.79
2022-12-18T08:40:45.393Z,4.36
2022-12-18T08:44:06.740Z,5.09
2022-12-18T08:47:09.638Z,5.66
2022-12-18T08:50:13.288Z,6.09
2022-12-18T08:53:16.038Z,6.48
2022-12-18T08:56:21.643Z,6.82
2022-12-18T08:59:24.671Z,7.40
2022-12-18T09:02:27.725Z,7.87
2022-12-18T09:05:31.274Z,8.42
2022-12-18T09:08:38.110Z,9.44
2022-12-18T09:11:41.160Z,10.78
2022-12-18T09:14:44.002Z,11.47
2022-12-18T09:17:46.854Z,11.43
2022-12-18T09:20:51.323Z,11.79
2022-12-18T09:23:56.145Z,12.87
2022-12-18T09:26:58.993Z,14.35
2022-12-18T09:30:02.376Z,14.43
2022-12-18T09:33:05.192Z,14.39
2022-12-18T09:36:12.372Z,14.80
2022-12-18T09:39:15.274Z,15.86
2022-12-18T09:42:23.140Z,15.88
2022-12-18T09:45:26.466Z,15.41
2022-12-18T09:48:33.663Z,15.29
2022-12-18T09:51:43.756Z,15.94
2022-12-18T09:54:57.483Z,16.58
2022-12-18T09:58:24.042Z,16.12
2022-12-18T10:01:38.980Z,15.39
2022-12-18T10:04:58.127Z,15.68
2022-12-18T10:08:00.466Z,16.80
2022-12-18T10:11:31.714Z,18.18
2022-12-18T10:14:51.823Z,18.18
2022-12-18T10:18:23.665Z,18.96
2022-12-18T10:21:40.438Z,19.82
2022-12-18T10:24:48.775Z,19.76
2022-12-18T10:27:58.786Z,19.84
2022-12-18T10:31:02.146Z,18.69
2022-12-18T10:34:04.539Z,18.06
2022-12-18T10:37:16.567Z,17.83
2022-12-18T10:40:22.558Z,18.11
2022-12-18T10:43:32.770Z,18.18
2022-12-18T10:46:35.809Z,18.74
2022-12-18T10:49:53.503Z,19.77
2022-12-18T10:52:59.190Z,21.02
2022-12-18T10:56:05.180Z,22.00
2022-12-18T10:59:10.573Z,22.63
2022-12-18T11:02:28.949Z,23.00
2022-12-18T11:05:37.821Z,23.05
2022-12-18T11:08:43.910Z,22.49
2022-12-18T11:11:55.755Z,21.74
2022-12-18T11:15:01.024Z,20.99
2022-12-18T11:18:03.610Z,20.49
2022-12-18T11:21:12.033Z,19.97
2022-12-18T11:24:35.740Z,19.90
2022-12-18T11:27:40.844Z,19.07
2022-12-18T11:30:43.294Z,18.15
2022-12-18T11:34:27.020Z,17.24
2022-12-18T11:37:20.329Z,16.83
2022-12-18T11:40:37.854Z,16.06
2022-12-18T11:43:56.828Z,15.56
2022-12-18T11:47:37.628Z,15.37
2022-12-18T11:50:54.903Z,15.63
2022-12-18T11:53:58.377Z,17.28
2022-12-18T11:57:19.677Z,18.84
2022-12-18T12:00:24.326Z,20.05
2022-12-18T12:03:51.617Z,20.53
2022-12-18T12:07:22.419Z,20.48
2022-12-18T12:11:05.051Z,21.11
2022-12-18T12:14:17.574Z,21.25
2022-12-18T12:17:39.024Z,21.11
2022-12-18T12:20:57.715Z,21.22
2022-12-18T12:24:10.899Z,21.16
2022-12-18T12:27:16.763Z,21.00
2022-12-18T12:30:27.206Z,20.67
2022-12-18T12:33:47.071Z,20.42
2022-12-18T12:37:00.988Z,19.74
2022-12-18T12:40:26.815Z,19.38
2022-12-18T12:47:26.484Z,18.18
2022-12-18T12:50:34.731Z,16.04
2022-12-18T12:53:40.170Z,14.02
2022-12-18T12:56:59.048Z,12.27
2022-12-18T13:00:14.025Z,10.85
2022-12-18T13:03:30.435Z,9.77
2022-12-18T13:06:58.226Z,9.03
2022-12-18T13:10:23.811Z,8.44
2022-12-18T13:13:50.754Z,7.83
2022-12-18T13:17:22.806Z,7.33
2022-12-18T13:20:35.587Z,6.91
2022-12-18T13:23:39.132Z,6.53
2022-12-18T13:26:42.523Z,6.22
2022-12-18T13:29:47.513Z,5.92
2022-12-18T13:33:16.304Z,5.66
2022-12-18T13:36:36.152Z,5.53
2022-12-18T13:39:39.152Z,5.47
2022-12-18T13:43:02.607Z,5.35
2022-12-18T13:46:23.744Z,5.05
2022-12-18T13:49:44.832Z,4.78
2022-12-18T13:52:47.665Z,4.49
2022-12-18T13:55:51.590Z,4.49
2022-12-18T13:59:13.392Z,4.45
2022-12-18T14:02:22.134Z,4.21
2022-12-18T14:05:36.646Z,4.27
2022-12-18T14:08:44.546Z,4.02
2022-12-18T14:11:50.572Z,3.96
2022-12-18T14:14:55.318Z,3.85
2022-12-18T14:18:17.246Z,3.84
2022-12-18T14:21:30.680Z,3.73
2022-12-18T14:24:33.881Z,3.64
2022-12-18T14:27:39.291Z,3.59
2022-12-18T14:30:44.816Z,3.52
2022-12-18T14:33:48.133Z,3.47
2022-12-18T14:36:56.307Z,3.43
2022-12-18T14:40:07.301Z,3.36
2022-12-18T14:43:14.237Z,3.34
2022-12-18T14:46:28.482Z,3.31
2022-12-18T14:49:35.420Z,3.23
2022-12-18T14:52:39.676Z,3.14
2022-12-18T14:55:45.974Z,3.27
2022-12-18T14:59:00.381Z,3.18
2022-12-18T15:02:09.482Z,3.17
2022-12-18T15:05:14.138Z,2.96
2022-12-18T15:08:46.390Z,2.90
2022-12-18T15:11:49.040Z,2.93
2022-12-18T15:14:52.274Z,2.88
2022-12-18T15:18:00.323Z,2.81
2022-12-18T15:21:11.266Z,2.79
2022-12-18T15:24:26.148Z,2.73
2022-12-18T15:27:34.411Z,2.68
2022-12-18T15:30:37.082Z,2.67
2022-12-18T15:33:47.187Z,2.71
2022-12-18T15:36:51.587Z,2.65
2022-12-18T15:39:54.633Z,2.54
2022-12-18T15:43:16.404Z,2.73
2022-12-18T15:46:24.559Z,2.75
2022-12-18T15:49:27.100Z,2.66
2022-12-18T15:52:30.210Z,2.70
2022-12-18T15:55:51.152Z,2.68
2022-12-18T15:58:54.850Z,2.57
2022-12-18T16:01:57.714Z,2.56
2022-12-18T16:05:00.882Z,2.40
2022-12-18T16:08:03.484Z,2.33
2022-12-18T16:11:06.929Z,2.44
2022-12-18T16:14:19.736Z,2.31
2022-12-18T16:17:23.003Z,2.22
2022-12-18T16:20:25.500Z,2.18
2022-12-18T16:23:29.063Z,2.15
2022-12-18T16:26:33.140Z,2.10
2022-12-18T16:29:36.189Z,2.03
2022-12-18T16:32:38.648Z,2.02
2022-12-18T16:35:41.810Z,1.99
2022-12-18T16:38:45.402Z,1.95
2022-12-18T16:41:48.835Z,1.93
2022-12-18T16:44:51.375Z,1.94
2022-12-18T16:47:56.747Z,1.92
2022-12-18T16:51:04.727Z,1.92
2022-12-18T16:54:11.730Z,1.87
2022-12-18T16:57:19.537Z,1.83
2022-12-18T17:00:24.150Z,1.78
2022-12-18T17:03:28.125Z,1.70
2022-12-18T17:06:33.823Z,1.62
2022-12-18T17:09:38.257Z,1.57
2022-12-18T17:12:41.455Z,1.51
2022-12-18T17:15:44.038Z,1.48
2022-12-18T17:18:47.202Z,1.48
2022-12-18T17:21:51.221Z,1.45
2022-12-18T17:24:54.284Z,1.41
2022-12-18T17:27:56.776Z,1.37
2022-12-18T17:30:59.907Z,1.28
2022-12-18T17:34:03.582Z,1.20
2022-12-18T17:37:06.773Z,1.09
2022-12-18T17:40:09.972Z,1.02
2022-12-18T17:43:13.198Z,0.96
2022-12-18T17:46:15.694Z,0.90
2022-12-18T17:49:19.032Z,0.90
2022-12-18T17:52:21.571Z,0.88
2022-12-18T17:55:25.389Z,0.89
2022-12-18T17:58:29.239Z,0.84
2022-12-18T18:01:32.805Z,0.80
2022-12-18T18:04:35.644Z,0.79
2022-12-18T18:07:39.667Z,0.78
2022-12-18T18:10:42.503Z,0.82
2022-12-18T18:14:04.499Z,0.78
2022-12-18T18:17:07.347Z,0.71
2022-12-18T18:20:10.755Z,0.65
2022-12-18T18:23:13.545Z,0.62
2022-12-18T18:26:16.345Z,0.61
2022-12-18T18:29:23.594Z,0.60
2022-12-18T18:32:28.666Z,0.60
2022-12-18T18:35:53.440Z,0.60
2022-12-18T18:38:54.709Z,0.57
2022-12-18T18:41:57.589Z,0.59
2022-12-18T18:45:00.353Z,0.62
2022-12-18T18:48:03.174Z,0.72
2022-12-18T18:51:21.086Z,0.69
2022-12-18T18:54:25.684Z,0.64
2022-12-18T18:57:30.465Z,0.61
2022-12-18T19:00:33.583Z,0.60
2022-12-18T19:03:37.874Z,0.58
2022-12-18T19:06:42.793Z,0.56
2022-12-18T19:09:51.876Z,0.52
2022-12-18T19:13:13.300Z,0.52
2022-12-18T19:16:16.099Z,0.52
2022-12-18T19:19:21.215Z,0.47
2022-12-18T19:22:24.472Z,0.54
2022-12-18T19:25:38.325Z,0.49
2022-12-18T19:28:44.665Z,0.68
2022-12-18T19:31:47.873Z,0.61
2022-12-18T19:34:50.753Z,0.55
2022-12-18T19:37:53.593Z,0.52
2022-12-18T19:40:56.492Z,0.58
2022-12-18T19:43:59.307Z,0.62
2022-12-18T19:47:02.093Z,0.60
2022-12-18T19:50:05.256Z,0.59
2022-12-18T19:53:08.720Z,0.54
2022-12-18T19:56:15.741Z,0.52
2022-12-18T19:59:18.603Z,0.49
2022-12-18T20:02:21.712Z,0.46
2022-12-18T20:05:26.353Z,0.45
2022-12-18T20:08:29.639Z,0.41
2022-12-18T20:11:36.364Z,0.43
2022-12-18T20:14:44.730Z,0.38
2022-12-18T20:17:48.053Z,0.45
2022-12-18T20:20:50.769Z,0.35
2022-12-18T20:23:55.945Z,0.31
2022-12-18T20:26:58.508Z,0.38
2022-12-18T20:30:01.551Z,0.35
2022-12-18T20:33:04.078Z,0.26
2022-12-18T20:36:09.108Z,0.33
2022-12-18T20:39:12.462Z,0.42
2022-12-18T20:42:17.373Z,0.40
2022-12-18T20:45:19.849Z,0.33
2022-12-18T20:48:26.606Z,0.24
2022-12-18T20:51:30.632Z,0.25
2022-12-18T20:54:33.730Z,0.20
2022-12-18T20:57:38.379Z,0.22
2022-12-18T21:00:41.478Z,0.16
2022-12-18T21:03:46.155Z,0.20
2022-12-18T21:06:54.250Z,0.25
2022-12-18T21:10:05.463Z,0.16
2022-12-18T21:13:08.808Z,0.18
2022-12-18T21:16:13.928Z,0.08
2022-12-18T21:19:23.174Z,0.08
2022-12-18T21:22:27.076Z,0.09
2022-12-18T21:25:30.554Z,-0.01
2022-12-18T21:28:33.019Z,-0.08
2022-12-18T21:31:39.674Z,-0.14
2022-12-18T21:34:47.489Z,-0.14
2022-12-18T21:37:51.172Z,-0.02
2022-12-18T21:40:53.620Z,0.07
2022-12-18T21:44:06.359Z,0.00
2022-12-18T21:47:21.982Z,-0.07
2022-12-18T21:50:25.613Z,-0.10
2022-12-18T21:53:28.290Z,0.08
2022-12-18T21:56:56.756Z,0.07
2022-12-18T21:59:59.455Z,0.01
2022-12-18T22:03:18.146Z,-0.06
2022-12-18T22:06:22.482Z,-0.16
2022-12-18T22:09:26.369Z,-0.19
2022-12-18T22:12:35.467Z,-0.16
2022-12-18T22:15:38.696Z,-0.14
2022-12-18T22:18:41.542Z,-0.11
2022-12-18T22:21:46.887Z,-0.24
2022-12-18T22:24:49.611Z,-0.27
2022-12-18T22:28:11.276Z,-0.36
2022-12-18T22:31:14.031Z,-0.34
2022-12-18T22:34:22.011Z,-0.38
2022-12-18T22:37:26.006Z,-0.32
2022-12-18T22:40:29.385Z,-0.38
2022-12-18T22:43:33.417Z,-0.42
2022-12-18T22:46:39.122Z,-0.43
2022-12-18T22:49:41.938Z,-0.42
2022-12-18T22:52:44.651Z,-0.41
2022-12-18T22:55:47.427Z,-0.39
2022-12-18T22:58:51.486Z,-0.43
2022-12-18T23:01:58.613Z,-0.57
2022-12-18T23:05:02.175Z,-0.69
2022-12-18T23:08:05.139Z,-0.62
2022-12-18T23:11:08.862Z,-0.67
2022-12-18T23:14:12.750Z,-0.69
2022-12-18T23:17:15.473Z,-0.62
2022-12-18T23:20:18.223Z,-0.65
2022-12-18T23:23:20.942Z,-0.68
2022-12-18T23:26:25.425Z,-0.61
2022-12-18T23:29:28.287Z,-0.64
2022-12-18T23:32:31.095Z,-0.69
2022-12-18T23:35:36.139Z,-0.66
2022-12-18T23:38:39.867Z,-0.73
2022-12-18T23:41:42.636Z,-0.80
2022-12-18T23:44:45.417Z,-0.78
2022-12-18T23:47:50.882Z,-0.74
2022-12-18T23:50:54.110Z,-0.83
2022-12-18T23:53:58.764Z,-0.83
2022-12-18T23:57:01.856Z,-0.83
